createdAt,value
2018-02-21T00:01:07.518Z,29.70
2018-02-21T00:03:35.054Z,33.20
2018-02-21T00:06:03.379Z,31.40
2018-02-21T00:08:30.926Z,30.75
2018-02-21T00:10:58.459Z,32.07
2018-02-21T00:13:26.787Z,28.70
2018-02-21T00:15:54.326Z,29.27
2018-02-21T00:18:21.882Z,31.47
2018-02-21T00:20:49.419Z,32.13
2018-02-21T00:23:16.995Z,31.27
2018-02-21T00:25:44.531Z,30.07
2018-02-21T00:28:12.873Z,32.33
2018-02-21T00:30:40.414Z,31.50
2018-02-21T00:33:07.978Z,30.42
2018-02-21T00:35:35.517Z,30.23
2018-02-21T00:38:03.077Z,28.33
2018-02-21T00:40:30.614Z,30.60
2018-02-21T00:42:58.938Z,32.40
2018-02-21T00:45:26.483Z,32.07
2018-02-21T00:47:54.034Z,30.13
2018-02-21T00:50:21.562Z,30.93
2018-02-21T00:52:49.873Z,30.35
2018-02-21T00:55:17.435Z,28.10
2018-02-21T00:57:44.979Z,32.22
2018-02-21T01:00:12.542Z,31.60
2018-02-21T01:02:40.086Z,28.70
2018-02-21T01:05:08.408Z,31.43
2018-02-21T01:07:35.937Z,28.47
2018-02-21T01:10:03.516Z,30.20
2018-02-21T01:12:31.048Z,29.37
2018-02-21T01:14:58.608Z,29.75
2018-02-21T01:17:26.905Z,31.67
2018-02-21T01:19:54.476Z,31.67
2018-02-21T01:22:22.024Z,32.10
2018-02-21T01:24:49.588Z,32.00
2018-02-21T01:27:17.127Z,29.87
2018-02-21T01:29:44.695Z,29.80
2018-02-21T01:32:12.230Z,32.35
2018-02-21T01:34:40.565Z,33.40
2018-02-21T01:37:08.872Z,31.30
2018-02-21T01:39:36.440Z,31.58
2018-02-21T01:42:04.751Z,29.37
2018-02-21T01:44:32.319Z,27.98
2018-02-21T01:46:59.870Z,28.83
2018-02-21T01:49:27.429Z,31.25
2018-02-21T01:51:54.978Z,26.02
2018-02-21T01:54:22.550Z,28.42
2018-02-21T01:56:50.116Z,28.35
2018-02-21T01:59:17.658Z,27.77
2018-02-21T02:01:45.243Z,25.40
2018-02-21T02:04:12.778Z,27.60
2018-02-21T02:06:40.344Z,27.00
2018-02-21T02:09:07.883Z,29.17
2018-02-21T02:11:36.210Z,28.40
2018-02-21T02:14:03.741Z,25.67
2018-02-21T02:16:31.303Z,27.93
2018-02-21T02:18:58.836Z,29.13
2018-02-21T02:21:27.166Z,27.45
2018-02-21T02:23:54.700Z,28.70
2018-02-21T02:26:22.269Z,30.62
2018-02-21T02:28:49.802Z,28.97
2018-02-21T02:31:18.186Z,29.85
2018-02-21T02:33:45.730Z,33.83
2018-02-21T02:36:14.053Z,29.10
2018-02-21T02:38:47.566Z,30.55
2018-02-21T02:41:15.131Z,28.70
2018-02-21T02:43:43.442Z,29.80
2018-02-21T02:46:11.779Z,27.57
2018-02-21T02:48:39.310Z,28.00
2018-02-21T02:51:06.881Z,32.60
2018-02-21T02:53:34.415Z,28.80
2018-02-21T02:56:01.986Z,30.48
2018-02-21T02:58:29.526Z,30.03
2018-02-21T03:00:57.847Z,32.20
2018-02-21T03:03:25.387Z,32.30
2018-02-21T03:05:52.959Z,30.57
2018-02-21T03:08:20.506Z,30.02
2018-02-21T03:10:48.051Z,31.90
2018-02-21T03:13:16.346Z,30.77
2018-02-21T03:15:43.916Z,32.92
2018-02-21T03:18:11.458Z,29.97
2018-02-21T03:20:39.013Z,31.03
2018-02-21T03:23:07.314Z,31.00
2018-02-21T03:25:34.870Z,32.77
2018-02-21T03:28:02.402Z,32.80
2018-02-21T03:30:30.730Z,33.55
2018-02-21T03:32:58.279Z,34.67
2018-02-21T03:35:25.839Z,34.93
2018-02-21T03:37:53.378Z,36.90
2018-02-21T03:40:20.942Z,37.30
2018-02-21T03:42:48.485Z,32.80
2018-02-21T03:45:16.054Z,35.10
2018-02-21T03:47:43.589Z,36.33
2018-02-21T03:50:11.914Z,34.33
2018-02-21T03:52:39.461Z,34.28
2018-02-21T03:55:07.023Z,33.90
2018-02-21T03:57:34.570Z,34.28
2018-02-21T04:00:02.109Z,34.20
2018-02-21T04:02:30.434Z,33.33
2018-02-21T04:04:57.974Z,29.13
2018-02-21T04:07:25.538Z,30.53
2018-02-21T04:09:53.070Z,29.33
2018-02-21T04:12:21.402Z,32.17
2018-02-21T04:14:48.946Z,29.15
2018-02-21T04:17:16.510Z,28.40
2018-02-21T04:19:44.054Z,28.60
2018-02-21T04:22:11.606Z,27.00
2018-02-21T04:24:39.142Z,26.00
2018-02-21T04:27:07.467Z,25.70
2018-02-21T04:29:35.002Z,25.17
2018-02-21T04:32:02.563Z,29.67
2018-02-21T04:34:30.099Z,24.60
2018-02-21T04:36:58.438Z,24.85
2018-02-21T04:39:25.979Z,27.10
2018-02-21T04:41:53.553Z,25.20
2018-02-21T04:44:21.877Z,24.85
2018-02-21T04:46:50.206Z,26.60
2018-02-21T04:49:17.748Z,26.50
2018-02-21T04:51:45.328Z,26.48
2018-02-21T04:54:27.769Z,25.73
2018-02-21T04:57:00.979Z,26.03
2018-02-21T04:59:29.295Z,26.20
2018-02-21T05:01:56.878Z,27.10
2018-02-21T05:04:24.418Z,27.08
2018-02-21T05:06:51.978Z,25.62
2018-02-21T05:09:19.550Z,26.45
2018-02-21T05:11:47.106Z,27.08
2018-02-21T05:14:15.422Z,25.08
2018-02-21T05:16:43.763Z,28.62
2018-02-21T05:19:11.340Z,28.40
2018-02-21T05:21:38.902Z,27.15
2018-02-21T05:24:06.473Z,28.75
2018-02-21T05:26:34.273Z,27.75
2018-02-21T05:29:01.818Z,27.42
2018-02-21T05:31:29.393Z,28.92
2018-02-21T05:33:56.934Z,27.97
2018-02-21T05:36:25.269Z,28.90
2018-02-21T05:38:52.864Z,28.35
2018-02-21T05:41:20.521Z,32.10
2018-02-21T05:43:48.934Z,26.92
2018-02-21T05:46:16.494Z,30.30
2018-02-21T05:48:44.026Z,27.80
2018-02-21T05:51:12.358Z,28.58
2018-02-21T05:53:39.899Z,31.55
2018-02-21T05:56:07.455Z,31.73
2018-02-21T05:58:35.031Z,30.42
2018-02-21T06:01:02.575Z,32.83
2018-02-21T06:03:30.145Z,28.75
2018-02-21T06:05:57.687Z,34.72
2018-02-21T06:08:25.252Z,34.35
2018-02-21T06:10:52.793Z,31.45
2018-02-21T06:13:21.128Z,33.85
2018-02-21T06:15:48.683Z,32.55
2018-02-21T06:18:16.246Z,36.58
2018-02-21T06:20:43.788Z,37.55
2018-02-21T06:23:11.354Z,34.95
2018-02-21T06:25:38.895Z,35.00
2018-02-21T06:28:06.467Z,34.30
2018-02-21T06:30:34.012Z,35.47
2018-02-21T06:54:30.476Z,35.72
2018-02-21T06:56:58.422Z,35.65
2018-02-21T06:59:25.958Z,36.15
2018-02-21T07:01:53.549Z,34.70
2018-02-21T07:04:21.856Z,36.03
2018-02-21T07:06:49.425Z,34.30
2018-02-21T07:09:16.974Z,36.03
2018-02-21T07:11:44.538Z,36.92
2018-02-21T07:14:12.082Z,35.53
2018-02-21T07:16:39.628Z,35.70
2018-02-21T07:19:07.960Z,38.35
2018-02-21T07:21:35.498Z,35.10
2018-02-21T07:24:03.069Z,36.78
2018-02-21T07:26:30.618Z,37.42
2018-02-21T07:28:58.183Z,35.47
2018-02-21T07:31:25.727Z,35.50
2018-02-21T07:33:53.290Z,38.40
2018-02-21T07:36:20.830Z,36.42
2018-02-21T07:38:49.166Z,34.22
2018-02-21T07:41:16.714Z,36.20
2018-02-21T07:43:44.323Z,37.25
2018-02-21T07:46:12.650Z,37.35
2018-02-21T07:48:40.222Z,38.83
2018-02-21T07:51:07.815Z,37.42
2018-02-21T07:53:35.380Z,38.17
2018-02-21T07:56:03.689Z,39.38
2018-02-21T07:58:31.255Z,42.53
2018-02-21T08:00:58.841Z,37.45
2018-02-21T08:03:26.379Z,41.00
2018-02-21T08:05:53.929Z,40.42
2018-02-21T08:08:21.490Z,37.58
2018-02-21T08:10:49.030Z,38.47
2018-02-21T08:13:17.363Z,39.85
2018-02-21T08:15:44.915Z,39.10
2018-02-21T08:18:12.475Z,38.40
2018-02-21T08:20:40.022Z,36.63
2018-02-21T08:23:07.584Z,38.00
2018-02-21T08:25:35.118Z,39.13
2018-02-21T08:28:02.685Z,39.23
2018-02-21T08:30:30.224Z,37.13
2018-02-21T08:32:57.789Z,38.20
2018-02-21T08:35:25.334Z,36.00
2018-02-21T08:37:53.671Z,37.70
2018-02-21T08:40:21.216Z,37.67
2018-02-21T08:42:48.782Z,37.20
2018-02-21T08:45:16.317Z,38.53
2018-02-21T08:47:43.874Z,38.97
2018-02-21T08:50:11.413Z,37.08
2018-02-21T08:52:38.994Z,36.43
2018-02-21T08:55:06.539Z,37.60
2018-02-21T08:57:34.101Z,36.92
2018-02-21T09:00:02.409Z,39.97
2018-02-21T09:02:29.977Z,37.17
2018-02-21T09:04:57.658Z,34.50
2018-02-21T09:07:25.224Z,36.70
2018-02-21T09:09:52.782Z,36.90
2018-02-21T09:12:20.358Z,36.73
2018-02-21T09:14:47.883Z,33.23
2018-02-21T09:17:15.450Z,34.90
2018-02-21T09:19:43.004Z,35.60
2018-02-21T09:22:10.535Z,33.63
2018-02-21T09:24:38.089Z,35.67
2018-02-21T09:27:06.544Z,29.93
2018-02-21T09:29:34.886Z,33.83
2018-02-21T09:32:02.417Z,32.97
2018-02-21T09:34:29.981Z,34.27
2018-02-21T09:36:57.531Z,32.60
2018-02-21T09:39:25.107Z,32.60
2018-02-21T09:41:52.643Z,33.90
2018-02-21T09:44:20.975Z,34.17
2018-02-21T09:46:48.498Z,32.17
2018-02-21T09:49:16.050Z,32.20
2018-02-21T09:51:43.586Z,32.57
2018-02-21T09:54:11.914Z,33.00
2018-02-21T09:56:39.449Z,30.30
2018-02-21T09:59:07.003Z,32.80
2018-02-21T10:01:34.535Z,33.37
2018-02-21T10:04:02.101Z,32.47
2018-02-21T10:06:30.409Z,31.52
2018-02-21T10:08:57.962Z,32.07
2018-02-21T10:11:25.490Z,32.50
2018-02-21T10:13:53.047Z,34.70
2018-02-21T10:16:21.354Z,33.30
2018-02-21T10:18:48.915Z,33.40
2018-02-21T10:21:16.447Z,33.60
2018-02-21T10:23:43.999Z,32.40
2018-02-21T10:26:11.533Z,34.47
2018-02-21T10:28:39.082Z,28.67
2018-02-21T10:31:06.610Z,32.97
2018-02-21T10:33:34.169Z,35.27
2018-02-21T10:36:02.463Z,34.83
2018-02-21T10:38:30.018Z,32.63
2018-02-21T10:40:57.554Z,36.27
2018-02-21T10:43:25.870Z,34.23
2018-02-21T10:45:53.398Z,31.90
2018-02-21T10:48:21.723Z,31.47
2018-02-21T10:50:49.254Z,31.77
2018-02-21T10:53:16.800Z,32.30
2018-02-21T10:55:44.332Z,34.03
2018-02-21T10:58:11.891Z,31.57
2018-02-21T11:03:55.938Z,29.90
2018-02-21T11:06:23.480Z,31.40
2018-02-21T11:08:51.034Z,30.07
2018-02-21T11:11:18.567Z,29.40
2018-02-21T11:13:46.122Z,29.13
2018-02-21T11:16:14.409Z,27.80
2018-02-21T11:18:41.966Z,24.07
2018-02-21T11:21:09.527Z,25.17
2018-02-21T11:23:37.162Z,24.07
2018-02-21T11:26:04.625Z,25.33
2018-02-21T11:28:32.946Z,25.80
2018-02-21T11:31:00.475Z,25.93
2018-02-21T11:33:28.031Z,26.90
2018-02-21T11:35:56.323Z,24.30
2018-02-21T11:38:23.881Z,25.80
2018-02-21T11:40:51.418Z,26.63
2018-02-21T11:43:19.746Z,26.30
2018-02-21T11:45:47.287Z,26.13
2018-02-21T11:48:14.846Z,25.60
2018-02-21T11:50:42.379Z,23.33
2018-02-21T11:53:10.697Z,24.37
2018-02-21T11:55:38.226Z,24.73
2018-02-21T11:58:06.542Z,24.13
2018-02-21T12:00:34.070Z,23.77
2018-02-21T12:03:01.639Z,23.00
2018-02-21T12:05:29.177Z,24.23
2018-02-21T12:07:57.499Z,22.90
2018-02-21T12:10:25.023Z,22.47
2018-02-21T12:12:52.582Z,24.13
2018-02-21T12:15:20.115Z,20.57
2018-02-21T12:17:47.645Z,20.50
2018-02-21T12:20:15.206Z,20.23
2018-02-21T12:22:42.743Z,20.07
2018-02-21T12:25:10.298Z,18.73
2018-02-21T12:27:37.827Z,17.70
2018-02-21T12:30:06.162Z,16.70
2018-02-21T12:32:34.178Z,16.90
2018-02-21T12:35:02.502Z,18.00
2018-02-21T12:37:30.035Z,17.80
2018-02-21T12:39:59.386Z,17.40
2018-02-21T12:42:26.915Z,17.70
2018-02-21T12:44:54.479Z,19.77
2018-02-21T12:47:22.006Z,17.77
2018-02-21T12:49:49.575Z,18.17
2018-02-21T12:52:17.111Z,16.43
2018-02-21T12:54:45.439Z,17.70
2018-02-21T12:57:12.979Z,16.50
2018-02-21T12:59:40.541Z,17.30
2018-02-21T13:02:08.075Z,17.33
2018-02-21T13:04:35.642Z,19.47
2018-02-21T13:07:03.179Z,15.93
2018-02-21T13:09:31.500Z,16.87
2018-02-21T13:11:59.033Z,16.77
2018-02-21T13:14:26.606Z,16.93
2018-02-21T13:16:54.137Z,18.20
2018-02-21T13:19:22.467Z,17.63
2018-02-21T13:21:49.995Z,17.83
2018-02-21T13:24:17.555Z,16.90
2018-02-21T13:26:45.099Z,17.07
2018-02-21T13:29:13.457Z,16.03
2018-02-21T13:31:40.974Z,16.57
2018-02-21T13:34:08.529Z,15.60
2018-02-21T13:36:36.050Z,14.60
2018-02-21T13:39:04.372Z,15.53
2018-02-21T13:41:31.912Z,14.90
2018-02-21T13:43:59.475Z,15.93
2018-02-21T13:46:27.006Z,16.63
2018-02-21T13:48:55.333Z,17.17
2018-02-21T13:51:22.872Z,16.00
2018-02-21T13:53:50.464Z,15.90
2018-02-21T13:56:18.003Z,14.73
2018-02-21T13:58:45.566Z,14.53
2018-02-21T14:01:13.103Z,15.07
2018-02-21T14:03:40.663Z,14.53
2018-02-21T14:06:08.194Z,16.43
2018-02-21T14:08:35.754Z,16.43
2018-02-21T14:11:03.286Z,16.47
2018-02-21T14:13:30.838Z,17.90
2018-02-21T14:15:58.366Z,17.67
2018-02-21T14:18:25.918Z,16.97
2018-02-21T14:20:53.454Z,19.00
2018-02-21T14:23:20.986Z,16.80
2018-02-21T14:25:48.545Z,17.53
2018-02-21T14:28:16.075Z,15.70
2018-02-21T14:30:43.640Z,16.00
2018-02-21T14:33:11.178Z,19.90
2018-02-21T14:35:38.735Z,16.57
2018-02-21T14:38:06.271Z,16.70
2018-02-21T14:40:33.835Z,16.93
2018-02-21T14:43:02.138Z,16.67
2018-02-21T14:45:29.703Z,16.00
2018-02-21T14:47:57.243Z,15.23
2018-02-21T14:50:25.554Z,14.93
2018-02-21T14:52:53.099Z,14.27
2018-02-21T14:55:20.661Z,15.43
2018-02-21T14:57:48.198Z,15.17
2018-02-21T15:00:16.528Z,15.03
2018-02-21T15:02:44.058Z,15.93
2018-02-21T15:05:11.615Z,14.53
2018-02-21T15:07:39.157Z,12.60
2018-02-21T15:10:07.482Z,13.37
2018-02-21T15:12:35.025Z,12.50
2018-02-21T15:15:02.588Z,12.37
2018-02-21T15:17:30.122Z,12.60
2018-02-21T15:19:57.688Z,12.13
2018-02-21T15:22:25.222Z,12.43
2018-02-21T15:24:53.557Z,12.93
2018-02-21T15:27:21.090Z,12.67
2018-02-21T15:29:48.650Z,12.33
2018-02-21T15:32:16.196Z,13.57
2018-02-21T15:34:43.754Z,11.67
2018-02-21T15:37:12.058Z,11.90
2018-02-21T15:39:39.629Z,12.70
2018-02-21T15:42:07.162Z,13.33
2018-02-21T15:44:34.723Z,13.57
2018-02-21T15:47:02.258Z,13.00
2018-02-21T15:49:30.587Z,13.80
2018-02-21T15:51:58.114Z,13.30
2018-02-21T15:54:25.678Z,14.00
2018-02-21T15:56:53.218Z,12.40
2018-02-21T15:59:21.546Z,12.93
2018-02-21T16:01:49.080Z,13.37
2018-02-21T16:04:16.648Z,14.17
2018-02-21T16:06:44.180Z,12.77
2018-02-21T16:09:12.505Z,16.10
2018-02-21T16:11:40.807Z,18.67
2018-02-21T16:14:08.357Z,18.00
2018-02-21T16:16:35.892Z,18.03
2018-02-21T16:19:03.446Z,18.23
2018-02-21T16:21:31.004Z,18.27
2018-02-21T16:23:58.531Z,19.13
2018-02-21T16:26:26.859Z,19.23
2018-02-21T16:28:54.395Z,18.00
2018-02-21T16:31:21.962Z,20.43
2018-02-21T16:33:49.494Z,18.47
2018-02-21T16:36:17.080Z,17.73
2018-02-21T16:38:44.619Z,18.27
2018-02-21T16:41:12.185Z,18.33
2018-02-21T16:43:39.719Z,16.57
2018-02-21T16:46:08.038Z,18.43
2018-02-21T16:48:35.582Z,16.13
2018-02-21T16:51:03.138Z,19.30
2018-02-21T16:53:30.671Z,18.73
2018-02-21T16:55:58.994Z,16.00
2018-02-21T16:58:26.536Z,16.03
2018-02-21T17:00:54.095Z,18.70
2018-02-21T17:03:21.702Z,16.00
2018-02-21T17:05:49.254Z,15.83
2018-02-21T17:08:16.802Z,17.57
2018-02-21T17:10:44.372Z,18.73
2018-02-21T17:13:11.908Z,17.00
2018-02-21T17:15:39.472Z,14.13
2018-02-21T17:18:07.010Z,16.17
2018-02-21T17:20:34.566Z,16.97
2018-02-21T17:23:02.103Z,16.23
2018-02-21T17:25:29.665Z,16.33
2018-02-21T17:27:57.966Z,15.53
2018-02-21T17:30:25.536Z,15.17
2018-02-21T17:32:53.066Z,14.30
2018-02-21T17:35:21.396Z,15.57
2018-02-21T17:37:48.922Z,15.27
2018-02-21T17:40:16.485Z,15.47
2018-02-21T17:42:44.019Z,15.20
2018-02-21T17:45:12.347Z,16.87
2018-02-21T17:47:39.879Z,17.40
2018-02-21T17:50:07.440Z,16.10
2018-02-21T17:52:34.970Z,16.30
2018-02-21T17:55:02.727Z,14.00
2018-02-21T17:57:30.363Z,16.60
2018-02-21T17:59:57.913Z,15.50
2018-02-21T18:02:25.450Z,16.33
2018-02-21T18:04:53.007Z,19.40
2018-02-21T18:07:20.543Z,16.17
2018-02-21T18:09:48.878Z,16.70
2018-02-21T18:12:16.438Z,14.70
2018-02-21T18:14:44.005Z,14.90
2018-02-21T18:17:12.318Z,14.90
2018-02-21T18:19:40.647Z,14.07
2018-02-21T18:22:08.190Z,15.90
2018-02-21T18:24:35.727Z,15.23
2018-02-21T18:27:04.050Z,16.30
2018-02-21T18:29:31.583Z,16.93
2018-02-21T18:31:59.137Z,16.93
2018-02-21T18:34:26.687Z,16.17
2018-02-21T18:36:55.115Z,16.50
2018-02-21T18:39:22.646Z,16.03
2018-02-21T18:41:50.214Z,16.37
2018-02-21T18:44:17.742Z,14.77
2018-02-21T18:46:46.062Z,19.03
2018-02-21T18:49:13.590Z,15.67
2018-02-21T18:51:41.151Z,15.43
2018-02-21T18:54:08.690Z,18.07
2018-02-21T18:56:37.002Z,14.33
2018-02-21T18:59:04.529Z,14.20
2018-02-21T19:01:32.851Z,16.83
2018-02-21T19:04:01.162Z,15.27
2018-02-21T19:06:28.727Z,15.93
2018-02-21T19:08:56.255Z,17.73
2018-02-21T19:11:23.806Z,15.70
2018-02-21T19:13:51.342Z,16.77
2018-02-21T19:16:18.903Z,17.23
2018-02-21T19:18:46.434Z,15.03
2018-02-21T19:21:14.766Z,16.70
2018-02-21T19:23:42.294Z,16.30
2018-02-21T19:26:09.854Z,16.17
2018-02-21T19:28:37.385Z,16.10
2018-02-21T19:31:04.946Z,16.83
2018-02-21T19:33:32.480Z,14.50
2018-02-21T19:36:00.026Z,16.27
2018-02-21T19:38:27.578Z,17.77
2018-02-21T19:40:55.128Z,16.00
2018-02-21T19:43:22.654Z,18.90
2018-02-21T19:45:50.974Z,15.87
2018-02-21T19:48:18.508Z,15.07
2018-02-21T19:50:46.074Z,18.40
2018-02-21T19:53:13.618Z,17.13
2018-02-21T19:55:41.947Z,17.50
2018-02-21T19:58:09.488Z,19.70
2018-02-21T20:00:37.057Z,16.27
2018-02-21T20:03:04.582Z,18.07
2018-02-21T20:05:32.122Z,19.53
2018-02-21T20:08:00.469Z,16.37
2018-02-21T20:10:27.998Z,17.83
2018-02-21T20:12:55.563Z,19.30
2018-02-21T20:15:23.112Z,19.23
2018-02-21T20:17:50.671Z,21.47
2018-02-21T20:20:18.202Z,19.80
2018-02-21T20:22:46.528Z,20.43
2018-02-21T20:25:14.067Z,19.97
2018-02-21T20:27:41.638Z,18.50
2018-02-21T20:30:09.193Z,17.30
2018-02-21T20:32:36.776Z,20.35
2018-02-21T20:35:04.302Z,19.73
2018-02-21T20:37:31.863Z,19.67
2018-02-21T20:39:59.395Z,21.53
2018-02-21T20:42:27.722Z,18.23
2018-02-21T20:44:55.258Z,19.50
2018-02-21T20:47:22.815Z,19.20
2018-02-21T20:49:50.361Z,18.03
2018-02-21T20:52:18.702Z,19.70
2018-02-21T20:54:46.243Z,19.80
2018-02-21T20:57:13.771Z,19.77
2018-02-21T20:59:41.346Z,20.67
2018-02-21T21:02:08.944Z,20.30
2018-02-21T21:04:37.305Z,20.87
2018-02-21T21:07:04.839Z,20.73
2018-02-21T21:09:32.398Z,19.33
2018-02-21T21:11:59.937Z,19.57
2018-02-21T21:14:28.933Z,20.77
2018-02-21T21:16:56.660Z,20.83
2018-02-21T21:19:24.248Z,18.67
2018-02-21T21:21:52.551Z,20.27
2018-02-21T21:24:20.112Z,19.30
2018-02-21T21:26:47.747Z,20.00
2018-02-21T21:29:15.338Z,20.17
2018-02-21T21:31:42.878Z,20.40
2018-02-21T21:34:11.198Z,20.13
2018-02-21T21:36:38.740Z,21.63
2018-02-21T21:39:06.307Z,20.70
2018-02-21T21:41:33.871Z,18.70
2018-02-21T21:44:01.412Z,19.70
2018-02-21T21:46:28.991Z,19.70
2018-02-21T21:48:56.532Z,21.73
2018-02-21T21:51:24.189Z,20.58
2018-02-21T21:53:52.177Z,19.48
2018-02-21T21:56:19.941Z,20.67
2018-02-21T21:58:47.475Z,19.97
2018-02-21T22:01:15.044Z,20.63
2018-02-21T22:03:42.578Z,20.63
2018-02-21T22:06:10.920Z,21.90
2018-02-21T22:08:38.858Z,20.35
2018-02-21T22:11:06.449Z,20.37
2018-02-21T22:13:33.983Z,19.83
2018-02-21T22:16:01.543Z,19.73
2018-02-21T22:18:29.082Z,20.77
2018-02-21T22:20:56.622Z,20.03
2018-02-21T22:23:24.980Z,21.80
2018-02-21T22:25:52.556Z,23.43
2018-02-21T22:28:20.891Z,22.07
2018-02-21T22:30:48.430Z,21.35
2018-02-21T22:33:16.047Z,23.92
2018-02-21T22:35:43.615Z,22.45
2018-02-21T22:38:11.964Z,24.58
2018-02-21T22:40:39.508Z,22.15
2018-02-21T22:43:07.082Z,24.20
2018-02-21T22:45:34.631Z,22.00
2018-02-21T22:48:02.197Z,24.90
2018-02-21T22:50:29.739Z,23.90
2018-02-21T22:52:57.316Z,25.75
2018-02-21T22:55:24.882Z,25.37
2018-02-21T22:57:53.239Z,25.85
2018-02-21T23:00:20.846Z,26.70
2018-02-21T23:02:48.372Z,26.77
2018-02-21T23:05:16.686Z,27.55
2018-02-21T23:07:44.227Z,26.02
2018-02-21T23:10:11.800Z,24.85
2018-02-21T23:12:39.347Z,25.97
2018-02-21T23:15:06.919Z,25.85
2018-02-21T23:17:34.462Z,27.35
2018-02-21T23:20:02.038Z,26.48
2018-02-21T23:22:29.579Z,29.05
2018-02-21T23:24:57.146Z,26.77
2018-02-21T23:27:24.693Z,27.62
2018-02-21T23:29:52.256Z,32.15
2018-02-21T23:32:19.798Z,28.58
2018-02-21T23:34:48.146Z,28.95
2018-02-21T23:37:15.704Z,29.50
2018-02-21T23:39:43.282Z,26.25
2018-02-21T23:42:10.823Z,29.70
2018-02-21T23:44:38.402Z,28.17
2018-02-21T23:47:05.944Z,30.15
2018-02-21T23:49:33.550Z,29.65
2018-02-21T23:52:01.097Z,29.80
2018-02-21T23:54:28.676Z,31.05
2018-02-21T23:56:56.214Z,30.13
2018-02-21T23:59:23.759Z,28.33
